Time;durP1;ratioP1;P1;durP2;ratioP2;P2;SDS_P1;SDS_P2;PMS_P1;PMS_P2;Temp;Humidity;BMP_temperature;BMP_pressure;BME280_temperature;BME280_humidity;BME280_pressure;Samples;Min_cycle;Max_cycle;Signal;HPM_P1;HPM_P2
2021/07/18 00:01:40;;;;;;;0.88;0.73;;;18.40;99.90;;;;;;5055427;28;20097;-77
2021/07/18 00:04:05;;;;;;;0.52;0.52;;;18.50;99.90;;;;;;5055401;28;20025;-77
2021/07/18 00:06:32;;;;;;;0.10;0.10;;;18.50;99.90;;;;;;5055404;28;20558;-77
2021/07/18 00:08:58;;;;;;;0.00;0.00;;;18.50;99.90;;;;;;5055396;28;20054;-77
2021/07/18 00:11:23;;;;;;;3.70;0.65;;;18.60;99.90;;;;;;5055336;28;20415;-77
2021/07/18 00:13:49;;;;;;;0.03;0.03;;;18.60;99.90;;;;;;5055281;28;20032;-77
2021/07/18 00:16:15;;;;;;;0.00;0.00;;;18.60;99.90;;;;;;5068188;23;20052;-74
2021/07/18 00:18:40;;;;;;;0.00;0.00;;;18.60;99.90;;;;;;5054569;28;20387;-72
2021/07/18 00:21:06;;;;;;;0.00;0.00;;;18.60;99.90;;;;;;5053827;28;20092;-72
2021/07/18 00:23:32;;;;;;;0.40;0.40;;;18.60;99.90;;;;;;5054402;28;20535;-72
2021/07/18 00:25:58;;;;;;;0.00;0.00;;;18.60;99.90;;;;;;5020137;28;20025;-72
2021/07/18 00:28:24;;;;;;;0.05;0.05;;;18.50;99.90;;;;;;5054379;28;20043;-72
2021/07/18 00:30:50;;;;;;;0.00;0.00;;;18.40;99.90;;;;;;5054431;28;20025;-72
2021/07/18 00:33:16;;;;;;;1.40;1.10;;;18.50;99.90;;;;;;5054117;28;20472;-71
2021/07/18 00:35:42;;;;;;;0.00;0.00;;;18.40;99.90;;;;;;5054309;28;20019;-72
2021/07/18 00:38:08;;;;;;;0.20;0.20;;;18.40;99.90;;;;;;5036223;28;20028;-72
2021/07/18 00:40:34;;;;;;;0.00;0.00;;;18.40;99.90;;;;;;5054208;28;20403;-72
2021/07/18 00:43:00;;;;;;;1.65;0.63;;;18.40;99.90;;;;;;5036197;28;20025;-72
2021/07/18 00:45:26;;;;;;;0.35;0.35;;;18.40;99.90;;;;;;5054231;28;20094;-72
2021/07/18 00:47:52;;;;;;;0.57;0.57;;;18.40;99.90;;;;;;5054226;28;20025;-72
2021/07/18 00:50:18;;;;;;;0.00;0.00;;;18.40;99.90;;;;;;5053919;28;20059;-72
2021/07/18 00:52:44;;;;;;;2.28;1.85;;;18.40;99.90;;;;;;5035918;28;20029;-72
2021/07/18 00:55:11;;;;;;;0.00;0.00;;;18.30;99.90;;;;;;5053984;28;20051;-72
2021/07/18 00:57:38;;;;;;;0.00;0.00;;;18.30;99.90;;;;;;5053981;28;20067;-72
2021/07/18 01:00:09;;;;;;;1.52;1.15;;;18.20;99.90;;;;;;5019366;28;20025;-72
2021/07/18 01:02:36;;;;;;;0.22;0.22;;;18.20;99.90;;;;;;5054105;28;20028;-71
2021/07/18 01:05:04;;;;;;;1.63;1.55;;;18.20;99.90;;;;;;5035628;28;20082;-72
2021/07/18 01:07:30;;;;;;;0.28;0.17;;;18.20;99.90;;;;;;5035801;28;20438;-72
2021/07/18 01:09:56;;;;;;;0.00;0.00;;;18.20;99.90;;;;;;5053746;28;20119;-72
2021/07/18 01:12:22;;;;;;;2.15;1.52;;;18.20;99.90;;;;;;5035814;28;20159;-72
2021/07/18 01:14:49;;;;;;;4.93;2.50;;;18.20;99.90;;;;;;5053447;28;20392;-72
2021/07/18 01:17:18;;;;;;;0.57;0.57;;;18.10;99.90;;;;;;5053349;28;20064;-72
2021/07/18 01:19:44;;;;;;;0.65;0.60;;;18.10;99.90;;;;;;5035551;28;20027;-72
2021/07/18 01:22:10;;;;;;;0.00;0.00;;;18.20;99.90;;;;;;5035665;28;20138;-72
2021/07/18 01:24:36;;;;;;;0.75;0.52;;;18.10;99.90;;;;;;5053306;28;20033;-72
2021/07/18 01:27:04;;;;;;;2.95;0.95;;;18.20;99.90;;;;;;5035527;28;20027;-72
2021/07/18 01:29:32;;;;;;;0.05;0.05;;;18.20;99.90;;;;;;5053186;28;20096;-72
2021/07/18 01:31:58;;;;;;;0.05;0.05;;;18.20;99.90;;;;;;5052066;28;20079;-72
2021/07/18 01:34:25;;;;;;;0.00;0.00;;;18.20;99.90;;;;;;5035294;28;20060;-73
2021/07/18 01:36:51;;;;;;;0.82;0.82;;;18.30;99.90;;;;;;5053208;28;20028;-72
2021/07/18 01:39:17;;;;;;;0.40;0.40;;;18.20;99.90;;;;;;5035127;28;20502;-72
2021/07/18 01:41:43;;;;;;;4.05;1.67;;;18.20;99.90;;;;;;5053130;28;20100;-72
2021/07/18 01:44:09;;;;;;;0.00;0.00;;;18.10;99.90;;;;;;5052832;28;20508;-72
2021/07/18 01:46:36;;;;;;;0.00;0.00;;;18.10;99.90;;;;;;5053052;28;20025;-72
2021/07/18 01:49:06;;;;;;;0.52;0.35;;;18.20;99.90;;;;;;5035051;28;20025;-72
2021/07/18 01:51:32;;;;;;;0.00;0.00;;;18.30;99.90;;;;;;5034921;28;20054;-72
2021/07/18 01:53:59;;;;;;;0.57;0.57;;;18.20;99.90;;;;;;5052757;28;20013;-72
2021/07/18 01:56:26;;;;;;;0.85;0.20;;;18.20;99.90;;;;;;5052803;28;20238;-73
2021/07/18 01:58:53;;;;;;;0.10;0.10;;;18.10;99.90;;;;;;5034743;28;20029;-72
2021/07/18 02:01:24;;;;;;;0.50;0.38;;;18.20;99.90;;;;;;5052719;28;20029;-72
2021/07/18 02:03:50;;;;;;;0.00;0.00;;;18.20;99.90;;;;;;5052701;28;20392;-72
2021/07/18 02:06:16;;;;;;;0.32;0.32;;;18.20;99.90;;;;;;5034723;28;20108;-72
2021/07/18 02:08:42;;;;;;;0.45;0.43;;;18.20;99.90;;;;;;5034747;28;20484;-72
2021/07/18 02:11:08;;;;;;;0.10;0.10;;;18.20;99.90;;;;;;5052483;28;20510;-73
2021/07/18 02:13:34;;;;;;;0.00;0.00;;;18.30;99.90;;;;;;5034566;28;20025;-72
2021/07/18 02:16:01;;;;;;;0.00;0.00;;;18.20;99.90;;;;;;5017995;28;20051;-72
2021/07/18 02:18:28;;;;;;;1.55;0.45;;;18.20;99.90;;;;;;5034796;28;20024;-72
2021/07/18 02:20:55;;;;;;;0.00;0.00;;;18.20;99.90;;;;;;5052290;28;20209;-72
2021/07/18 02:23:21;;;;;;;3.20;2.85;;;18.20;99.90;;;;;;5052967;28;20112;-74
2021/07/18 02:25:48;;;;;;;0.00;0.00;;;18.20;99.90;;;;;;5052157;28;20025;-74
2021/07/18 02:28:14;;;;;;;4.50;1.05;;;18.20;99.90;;;;;;5034247;28;20028;-74
2021/07/18 02:30:40;;;;;;;0.57;0.57;;;18.20;99.90;;;;;;5051981;28;20033;-73
2021/07/18 02:33:06;;;;;;;1.48;1.38;;;18.20;99.90;;;;;;5017787;28;20029;-74
2021/07/18 02:35:32;;;;;;;0.03;0.03;;;18.10;99.90;;;;;;5034344;28;20024;-74
2021/07/18 02:37:58;;;;;;;0.00;0.00;;;18.10;99.90;;;;;;5051882;28;20358;-74
2021/07/18 02:40:25;;;;;;;0.10;0.10;;;18.10;99.90;;;;;;5051923;28;20427;-73
2021/07/18 02:42:51;;;;;;;0.10;0.10;;;18.00;99.90;;;;;;5051548;28;20040;-74
2021/07/18 02:45:20;;;;;;;0.00;0.00;;;18.00;99.90;;;;;;5051858;28;20369;-74
2021/07/18 02:47:46;;;;;;;0.00;0.00;;;18.00;99.90;;;;;;5051967;28;20029;-73
2021/07/18 02:50:13;;;;;;;0.30;0.30;;;18.00;99.90;;;;;;5051682;28;20029;-73
2021/07/18 02:52:40;;;;;;;0.15;0.15;;;18.10;99.90;;;;;;5033752;28;20033;-74
2021/07/18 02:55:08;;;;;;;1.95;0.38;;;18.10;99.90;;;;;;5052018;28;20532;-73
2021/07/18 02:57:34;;;;;;;0.00;0.00;;;18.10;99.90;;;;;;5034137;28;20098;-74
2021/07/18 03:00:01;;;;;;;1.35;0.55;;;18.10;99.90;;;;;;5033990;28;20027;-73
2021/07/18 03:02:26;;;;;;;0.08;0.08;;;18.10;99.90;;;;;;5051657;28;20063;-74
2021/07/18 03:04:52;;;;;;;0.98;0.95;;;18.00;99.90;;;;;;5033552;28;20064;-73
2021/07/18 03:07:18;;;;;;;2.00;0.73;;;17.90;99.90;;;;;;5051739;28;20029;-73
2021/07/18 03:09:44;;;;;;;0.30;0.30;;;17.90;99.90;;;;;;5033886;28;20112;-74
2021/07/18 03:12:09;;;;;;;0.25;0.25;;;17.80;99.90;;;;;;5051623;28;20025;-74
2021/07/18 03:14:35;;;;;;;0.00;0.00;;;17.90;99.90;;;;;;5033856;28;20520;-73
2021/07/18 03:17:01;;;;;;;1.85;1.75;;;17.90;99.90;;;;;;5051634;28;20511;-74
2021/07/18 03:19:27;;;;;;;0.00;0.00;;;17.80;99.90;;;;;;5051669;28;20369;-74
2021/07/18 03:21:52;;;;;;;0.00;0.00;;;17.90;99.90;;;;;;5051497;28;20498;-74
2021/07/18 03:24:18;;;;;;;4.05;2.60;;;17.70;99.90;;;;;;5033581;28;20029;-74
2021/07/18 03:26:44;;;;;;;2.30;0.90;;;17.70;99.90;;;;;;5051502;28;20021;-73
2021/07/18 03:29:10;;;;;;;0.85;0.75;;;17.80;99.90;;;;;;5033683;28;20110;-73
2021/07/18 03:31:35;;;;;;;1.45;0.80;;;17.70;99.90;;;;;;5051180;28;20527;-73
2021/07/18 03:34:01;;;;;;;0.00;0.00;;;17.70;99.90;;;;;;5017017;28;20021;-73
2021/07/18 03:36:27;;;;;;;0.47;0.38;;;17.60;99.90;;;;;;5033408;28;20384;-74
2021/07/18 03:38:53;;;;;;;3.05;1.55;;;17.60;99.90;;;;;;5051392;28;20400;-73
2021/07/18 03:41:20;;;;;;;0.05;0.05;;;17.50;99.90;;;;;;5051179;28;20106;-74
2021/07/18 03:43:47;;;;;;;0.73;0.50;;;17.50;99.90;;;;;;5033416;28;20396;-74
2021/07/18 03:46:13;;;;;;;1.00;0.88;;;17.50;99.90;;;;;;5033263;28;20504;-73
2021/07/18 03:48:39;;;;;;;0.55;0.55;;;17.40;99.90;;;;;;5033439;28;20021;-73
2021/07/18 03:51:05;;;;;;;0.00;0.00;;;17.50;99.90;;;;;;5033231;28;20031;-74
2021/07/18 03:53:31;;;;;;;0.00;0.00;;;17.50;99.90;;;;;;5033425;28;20107;-73
2021/07/18 03:55:57;;;;;;;0.68;0.20;;;17.50;99.90;;;;;;5053382;28;20017;-73
2021/07/18 03:58:22;;;;;;;0.00;0.00;;;17.50;99.90;;;;;;5055018;28;20024;-74
2021/07/18 04:00:48;;;;;;;0.00;0.00;;;17.50;99.90;;;;;;5020301;28;20017;-73
2021/07/18 04:03:14;;;;;;;0.25;0.25;;;17.50;99.90;;;;;;5020416;28;20025;-73
2021/07/18 04:05:39;;;;;;;0.75;0.75;;;17.50;99.90;;;;;;5037038;28;20548;-73
2021/07/18 04:08:05;;;;;;;0.20;0.20;;;17.50;99.90;;;;;;5055243;28;20484;-74
2021/07/18 04:10:31;;;;;;;0.10;0.00;;;17.60;99.90;;;;;;5054767;28;20025;-73
2021/07/18 04:12:58;;;;;;;0.00;0.00;;;17.60;99.90;;;;;;5036526;28;20025;-73
2021/07/18 04:15:25;;;;;;;0.00;0.00;;;17.60;99.90;;;;;;5036553;28;20025;-74
2021/07/18 04:17:54;;;;;;;2.55;1.65;;;17.60;99.90;;;;;;5054547;28;20025;-73
2021/07/18 04:20:20;;;;;;;0.00;0.00;;;17.60;99.90;;;;;;5036531;28;20028;-74
2021/07/18 04:22:46;;;;;;;0.00;0.00;;;17.60;99.90;;;;;;5036305;28;20021;-73
2021/07/18 04:25:12;;;;;;;4.38;1.02;;;17.60;99.90;;;;;;5054516;28;20104;-74
2021/07/18 04:27:38;;;;;;;0.00;0.00;;;17.50;99.90;;;;;;5036580;28;20025;-74
2021/07/18 04:30:05;;;;;;;0.10;0.10;;;17.50;99.90;;;;;;5054316;28;20035;-74
2021/07/18 04:32:31;;;;;;;0.00;0.00;;;17.50;99.90;;;;;;5054086;28;20492;-74
2021/07/18 04:34:57;;;;;;;0.30;0.08;;;17.60;99.90;;;;;;5054261;28;20027;-74
2021/07/18 04:37:22;;;;;;;0.00;0.00;;;17.60;99.90;;;;;;5019845;28;20023;-73
2021/07/18 04:39:48;;;;;;;0.00;0.00;;;17.60;99.90;;;;;;5036234;28;20418;-73
2021/07/18 04:42:14;;;;;;;0.45;0.45;;;17.40;99.90;;;;;;5053922;28;20053;-74
2021/07/18 04:44:39;;;;;;;0.00;0.00;;;17.40;99.90;;;;;;5054075;28;20025;-74
2021/07/18 04:47:05;;;;;;;0.00;0.00;;;17.30;99.90;;;;;;5053986;28;20106;-73
2021/07/18 04:49:31;;;;;;;0.00;0.00;;;17.30;99.90;;;;;;5019677;28;20071;-74
2021/07/18 04:51:57;;;;;;;0.63;0.45;;;17.40;99.90;;;;;;5035716;28;20171;-73
2021/07/18 04:54:23;;;;;;;0.00;0.00;;;17.40;99.90;;;;;;5053825;28;20029;-73
2021/07/18 04:56:49;;;;;;;0.00;0.00;;;17.30;99.90;;;;;;5053855;28;20096;-73
2021/07/18 04:59:15;;;;;;;0.00;0.00;;;17.30;99.90;;;;;;5035984;28;20028;-74
2021/07/18 05:01:41;;;;;;;0.00;0.00;;;17.30;99.90;;;;;;5035668;28;20327;-73
2021/07/18 05:04:06;;;;;;;0.00;0.00;;;17.30;99.90;;;;;;5053810;28;20029;-74
2021/07/18 05:06:32;;;;;;;0.45;0.45;;;17.30;99.90;;;;;;5035660;28;20395;-74
2021/07/18 05:08:58;;;;;;;0.00;0.00;;;17.30;99.90;;;;;;5053666;28;20381;-74
2021/07/18 05:11:24;;;;;;;0.00;0.00;;;17.30;99.90;;;;;;5053363;28;20027;-73
2021/07/18 05:13:51;;;;;;;1.27;0.80;;;17.40;99.90;;;;;;5053466;28;20036;-73
2021/07/18 05:16:17;;;;;;;0.00;0.00;;;17.40;99.90;;;;;;5035620;28;20025;-74
2021/07/18 05:18:43;;;;;;;1.20;1.10;;;17.40;99.90;;;;;;5035428;28;20495;-74
2021/07/18 05:21:09;;;;;;;1.17;0.13;;;17.40;99.90;;;;;;5053308;28;20029;-74
2021/07/18 05:23:34;;;;;;;1.65;0.85;;;17.40;99.90;;;;;;5053262;28;20029;-73
2021/07/18 05:26:00;;;;;;;0.03;0.03;;;17.30;99.90;;;;;;5035641;28;20105;-74
2021/07/18 05:28:26;;;;;;;0.17;0.17;;;17.20;99.90;;;;;;5053186;28;20028;-74
2021/07/18 05:30:52;;;;;;;0.00;0.00;;;17.20;99.90;;;;;;5053068;28;20021;-73
2021/07/18 05:33:17;;;;;;;0.00;0.00;;;17.20;99.90;;;;;;5035206;28;20082;-73
2021/07/18 05:35:43;;;;;;;0.10;0.10;;;17.20;99.90;;;;;;5053119;28;20021;-73
2021/07/18 05:38:09;;;;;;;0.22;0.22;;;17.30;99.90;;;;;;5052927;28;20097;-73
2021/07/18 05:40:35;;;;;;;0.10;0.10;;;17.20;99.90;;;;;;5035310;28;20385;-74
2021/07/18 05:43:02;;;;;;;0.25;0.20;;;17.10;99.90;;;;;;5018671;28;20086;-73
2021/07/18 05:45:28;;;;;;;0.00;0.00;;;17.10;99.90;;;;;;5035160;28;20051;-73
2021/07/18 05:47:53;;;;;;;0.03;0.03;;;17.10;99.90;;;;;;5035044;28;20496;-73
2021/07/18 05:50:19;;;;;;;0.65;0.65;;;17.10;99.90;;;;;;5034783;28;20037;-73
2021/07/18 05:52:45;;;;;;;0.00;0.00;;;17.00;99.90;;;;;;5052598;28;20033;-74
2021/07/18 05:55:12;;;;;;;0.00;0.00;;;17.00;99.90;;;;;;5035020;28;20042;-73
2021/07/18 05:57:38;;;;;;;1.10;0.75;;;17.00;99.90;;;;;;5034722;28;20025;-73
2021/07/18 06:00:06;;;;;;;1.30;0.60;;;16.90;99.90;;;;;;5034733;28;20040;-73
2021/07/18 06:02:32;;;;;;;4.68;2.83;;;17.00;99.90;;;;;;5034661;28;20060;-73
2021/07/18 06:04:57;;;;;;;0.00;0.00;;;17.00;99.90;;;;;;5034772;28;20514;-73
2021/07/18 06:07:23;;;;;;;0.00;0.00;;;17.00;99.90;;;;;;5052488;28;20071;-73
2021/07/18 06:09:49;;;;;;;0.25;0.20;;;17.00;99.90;;;;;;5052603;28;20112;-73
2021/07/18 06:12:14;;;;;;;0.00;0.00;;;17.00;99.90;;;;;;5052269;28;20037;-73
2021/07/18 06:14:41;;;;;;;0.00;0.00;;;17.00;99.90;;;;;;5017990;28;20036;-73
2021/07/18 06:17:07;;;;;;;0.90;0.90;;;17.10;99.90;;;;;;5018270;23;20128;-74
2021/07/18 06:19:33;;;;;;;0.98;0.90;;;17.10;99.90;;;;;;4978592;28;20060;-74
2021/07/18 06:21:59;;;;;;;0.00;0.00;;;17.20;99.90;;;;;;5012615;28;20084;-74
2021/07/18 06:24:24;;;;;;;0.00;0.00;;;17.10;99.90;;;;;;5012523;28;20030;-74
2021/07/18 06:26:50;;;;;;;0.00;0.00;;;17.20;99.90;;;;;;4994308;28;20038;-74
2021/07/18 06:29:16;;;;;;;0.25;0.15;;;17.20;99.90;;;;;;4993921;28;20493;-74
2021/07/18 06:31:41;;;;;;;0.00;0.00;;;17.20;99.90;;;;;;4986357;28;20106;-74
2021/07/18 06:34:07;;;;;;;0.00;0.00;;;17.20;99.90;;;;;;5010783;28;20044;-74
2021/07/18 06:36:33;;;;;;;0.08;0.08;;;17.30;99.90;;;;;;5012457;28;20091;-74
2021/07/18 06:39:01;;;;;;;0.10;0.10;;;17.30;99.90;;;;;;5012798;28;20030;-74
2021/07/18 06:41:27;;;;;;;0.13;0.13;;;17.30;99.90;;;;;;5012144;28;20077;-74
2021/07/18 06:43:52;;;;;;;1.02;1.00;;;17.40;99.90;;;;;;5012514;28;20113;-74
2021/07/18 06:46:18;;;;;;;2.35;0.70;;;17.30;99.90;;;;;;5012265;28;20045;-75
2021/07/18 06:48:44;;;;;;;0.00;0.00;;;17.30;99.90;;;;;;5012228;28;20054;-74
2021/07/18 06:51:10;;;;;;;0.00;0.00;;;17.40;99.90;;;;;;4994486;28;20026;-75
2021/07/18 06:53:35;;;;;;;0.00;0.00;;;17.40;99.90;;;;;;5012189;28;20056;-74
2021/07/18 06:56:01;;;;;;;0.00;0.00;;;17.40;99.90;;;;;;4994613;28;20024;-74
2021/07/18 06:58:27;;;;;;;0.00;0.00;;;17.50;99.90;;;;;;4994217;28;20026;-74
2021/07/18 07:00:53;;;;;;;0.00;0.00;;;17.70;99.90;;;;;;5011850;28;20030;-75
2021/07/18 07:03:18;;;;;;;0.00;0.00;;;17.60;99.90;;;;;;4994208;28;20026;-74
2021/07/18 07:05:44;;;;;;;0.80;0.80;;;17.60;99.90;;;;;;4991107;28;20022;-74
2021/07/18 07:08:10;;;;;;;1.48;1.38;;;17.50;99.90;;;;;;5000391;28;20033;-75
2021/07/18 07:10:36;;;;;;;0.00;0.00;;;17.50;99.90;;;;;;4994563;28;20076;-74
2021/07/18 07:13:02;;;;;;;0.10;0.10;;;17.40;99.90;;;;;;5011525;28;20026;-74
2021/07/18 07:15:28;;;;;;;0.00;0.00;;;17.50;99.90;;;;;;5010689;28;20045;-74
2021/07/18 07:17:53;;;;;;;0.00;0.00;;;17.40;99.90;;;;;;4993959;28;20034;-74
2021/07/18 07:20:19;;;;;;;0.00;0.00;;;17.40;99.90;;;;;;4994462;28;20026;-74
2021/07/18 07:22:45;;;;;;;0.00;0.00;;;17.50;99.90;;;;;;5011761;28;20041;-75
2021/07/18 07:25:15;;;;;;;0.00;0.00;;;17.60;99.90;;;;;;4994611;28;20030;-74
2021/07/18 07:27:41;;;;;;;0.00;0.00;;;17.60;99.90;;;;;;5012086;28;20104;-75
2021/07/18 07:30:09;;;;;;;0.30;0.30;;;17.70;99.90;;;;;;5014571;28;20434;-74
2021/07/18 07:32:35;;;;;;;0.00;0.00;;;17.70;99.90;;;;;;5015414;28;20029;-74
2021/07/18 07:35:03;;;;;;;0.00;0.00;;;17.70;99.90;;;;;;5015764;28;20021;-75
2021/07/18 07:37:29;;;;;;;0.00;0.00;;;17.70;99.90;;;;;;5015825;28;20076;-74
2021/07/18 07:39:55;;;;;;;0.00;0.00;;;17.70;99.90;;;;;;4998222;28;20029;-74
2021/07/18 07:42:22;;;;;;;0.00;0.00;;;17.70;99.90;;;;;;4998105;28;20030;-74
2021/07/18 07:44:52;;;;;;;1.55;0.20;;;17.70;99.90;;;;;;4997708;28;20026;-74
2021/07/18 07:47:18;;;;;;;0.43;0.30;;;17.70;99.90;;;;;;4998091;28;20022;-74
2021/07/18 07:49:44;;;;;;;0.00;0.00;;;17.60;99.90;;;;;;4997715;28;20481;-74
2021/07/18 07:52:11;;;;;;;0.00;0.00;;;17.60;99.90;;;;;;4997829;28;20026;-74
2021/07/18 07:54:37;;;;;;;28.70;2.92;;;17.70;99.90;;;;;;4997573;28;20052;-74
2021/07/18 07:57:04;;;;;;;0.00;0.00;;;17.70;99.90;;;;;;5015459;28;20093;-74
2021/07/18 07:59:30;;;;;;;0.00;0.00;;;17.70;99.90;;;;;;5014309;28;20579;-74
2021/07/18 08:01:56;;;;;;;1.52;0.80;;;17.60;99.90;;;;;;5013931;28;20022;-74
2021/07/18 08:04:21;;;;;;;0.35;0.35;;;17.50;99.90;;;;;;5017124;28;20100;-74
2021/07/18 08:06:47;;;;;;;0.00;0.00;;;17.50;99.90;;;;;;5018397;28;20022;-74
2021/07/18 08:09:13;;;;;;;0.00;0.00;;;17.60;99.90;;;;;;5013920;28;20030;-74
2021/07/18 08:11:39;;;;;;;0.00;0.00;;;17.70;99.90;;;;;;5015246;28;20021;-74
2021/07/18 08:14:04;;;;;;;0.00;0.00;;;17.70;99.90;;;;;;5014510;28;20083;-74
2021/07/18 08:16:30;;;;;;;1.17;0.70;;;17.70;99.90;;;;;;4997325;28;20112;-74
2021/07/18 08:18:56;;;;;;;0.15;0.15;;;17.70;99.90;;;;;;5014948;28;20037;-74
2021/07/18 08:21:22;;;;;;;0.00;0.00;;;17.70;99.90;;;;;;5014102;28;20022;-74
2021/07/18 08:23:50;;;;;;;0.20;0.20;;;17.70;99.90;;;;;;5014774;28;20028;-75
2021/07/18 08:26:17;;;;;;;0.30;0.28;;;17.70;99.90;;;;;;5014952;28;20034;-74
2021/07/18 08:28:43;;;;;;;0.25;0.25;;;17.60;99.90;;;;;;4997050;28;20030;-74
2021/07/18 08:31:09;;;;;;;0.10;0.10;;;17.50;99.90;;;;;;5013454;28;20473;-74
2021/07/18 08:33:35;;;;;;;0.20;0.20;;;17.50;99.90;;;;;;5014381;28;20481;-75
2021/07/18 08:36:01;;;;;;;0.00;0.00;;;17.50;99.90;;;;;;5014592;28;20018;-75
2021/07/18 08:38:27;;;;;;;0.00;0.00;;;17.50;99.90;;;;;;5014657;28;20021;-74
2021/07/18 08:40:55;;;;;;;0.05;0.05;;;17.50;99.90;;;;;;4996115;28;20026;-75
2021/07/18 08:43:22;;;;;;;0.32;0.10;;;17.60;99.90;;;;;;5014359;28;20378;-74
2021/07/18 08:45:48;;;;;;;0.20;0.20;;;17.70;99.90;;;;;;5014279;28;20026;-75
2021/07/18 08:48:14;;;;;;;0.00;0.00;;;17.70;99.90;;;;;;5013473;28;20033;-75
2021/07/18 08:50:40;;;;;;;0.00;0.00;;;17.70;99.90;;;;;;5012913;28;20029;-75
2021/07/18 08:53:06;;;;;;;0.00;0.00;;;17.70;99.90;;;;;;4996421;28;20402;-75
2021/07/18 08:55:33;;;;;;;0.00;0.00;;;17.60;99.90;;;;;;5014203;28;20140;-74
2021/07/18 08:57:59;;;;;;;0.03;0.03;;;17.50;99.90;;;;;;5014183;28;20533;-74
2021/07/18 09:00:25;;;;;;;0.00;0.00;;;17.50;99.90;;;;;;4996528;28;20097;-74
2021/07/18 09:02:51;;;;;;;0.73;0.10;;;17.60;99.90;;;;;;4996076;28;20116;-74
2021/07/18 09:05:17;;;;;;;0.00;0.00;;;17.60;99.90;;;;;;5013815;28;20026;-75
2021/07/18 09:07:48;;;;;;;0.00;0.00;;;17.50;99.90;;;;;;5014006;28;20022;-74
2021/07/18 09:10:27;;;;;;;0.00;0.00;;;17.60;99.90;;;;;;5013991;28;20500;-75
2021/07/18 09:13:12;;;;;;;0.00;0.00;;;17.60;99.90;;;;;;5014234;28;20038;-74
2021/07/18 09:15:49;;;;;;;0.63;0.57;;;17.60;99.90;;;;;;5030770;28;20025;-74
2021/07/18 09:18:22;;;;;;;0.00;0.00;;;17.50;99.90;;;;;;5033598;28;20025;-74
2021/07/18 09:20:50;;;;;;;0.00;0.00;;;17.60;99.90;;;;;;5033359;28;20017;-74
2021/07/18 09:23:20;;;;;;;0.00;0.00;;;17.70;99.90;;;;;;5033653;28;20018;-74
2021/07/18 09:25:46;;;;;;;0.00;0.00;;;17.70;99.90;;;;;;5014817;28;20163;-74
2021/07/18 09:28:20;;;;;;;0.00;0.00;;;17.70;99.90;;;;;;4995915;28;20033;-75
2021/07/18 09:30:47;;;;;;;0.00;0.00;;;17.70;99.90;;;;;;4995874;28;20505;-75
2021/07/18 09:33:28;;;;;;;1.75;0.75;;;17.60;99.90;;;;;;4995901;28;20473;-74
2021/07/18 09:36:11;;;;;;;0.00;0.00;;;17.50;99.90;;;;;;5013548;28;20563;-74
2021/07/18 09:38:37;;;;;;;0.00;0.00;;;17.60;99.90;;;;;;4996097;28;20295;-74
2021/07/18 09:41:03;;;;;;;0.00;0.00;;;17.60;99.90;;;;;;4995652;28;20026;-74
2021/07/18 09:43:30;;;;;;;0.25;0.25;;;17.50;99.90;;;;;;4995631;28;20157;-74
2021/07/18 09:46:01;;;;;;;0.00;0.00;;;17.60;99.90;;;;;;5013245;28;20169;-74
2021/07/18 09:48:44;;;;;;;0.10;0.10;;;17.70;99.90;;;;;;5013033;28;20030;-74
2021/07/18 09:51:12;;;;;;;0.20;0.17;;;17.70;99.90;;;;;;4995577;28;20439;-74
2021/07/18 09:53:40;;;;;;;0.00;0.00;;;17.70;99.90;;;;;;4994363;28;20204;-74
2021/07/18 09:56:09;;;;;;;0.05;0.05;;;17.60;99.90;;;;;;5013194;28;20362;-75
2021/07/18 09:58:39;;;;;;;0.00;0.00;;;17.60;99.90;;;;;;5013107;28;20037;-74
2021/07/18 10:01:08;;;;;;;0.03;0.03;;;17.90;99.90;;;;;;4995156;28;20093;-74
2021/07/18 10:03:34;;;;;;;0.20;0.20;;;17.90;99.90;;;;;;5012904;28;20104;-74
2021/07/18 10:06:07;;;;;;;0.47;0.20;;;17.70;99.90;;;;;;4995544;28;20030;-74
2021/07/18 10:08:34;;;;;;;0.00;0.00;;;17.60;99.90;;;;;;4995281;28;20565;-74
2021/07/18 10:11:00;;;;;;;0.00;0.00;;;17.50;99.90;;;;;;5012668;28;20102;-74
2021/07/18 10:13:27;;;;;;;0.52;0.52;;;17.50;99.90;;;;;;4994773;28;20435;-74
2021/07/18 10:15:53;;;;;;;0.10;0.10;;;17.60;99.90;;;;;;5012600;28;20108;-74
2021/07/18 10:18:19;;;;;;;0.10;0.10;;;17.50;99.90;;;;;;5012759;28;20389;-74
2021/07/18 10:20:45;;;;;;;0.00;0.00;;;17.60;99.90;;;;;;5012565;28;20018;-74
2021/07/18 10:23:12;;;;;;;0.45;0.22;;;17.70;99.90;;;;;;5012498;28;20026;-75
2021/07/18 10:25:38;;;;;;;0.00;0.00;;;17.70;99.90;;;;;;4994986;28;20029;-74
2021/07/18 10:28:04;;;;;;;0.13;0.13;;;17.70;99.90;;;;;;5012285;28;20109;-74
2021/07/18 10:30:32;;;;;;;0.00;0.00;;;17.70;99.90;;;;;;5012569;28;20478;-74
2021/07/18 10:32:59;;;;;;;0.00;0.00;;;17.70;99.90;;;;;;5012294;28;20052;-74
2021/07/18 10:35:25;;;;;;;0.13;0.13;;;17.70;99.90;;;;;;5012422;28;20126;-74
2021/07/18 10:37:52;;;;;;;0.00;0.00;;;17.80;99.90;;;;;;4994926;28;20045;-74
2021/07/18 10:40:22;;;;;;;0.03;0.03;;;17.90;99.90;;;;;;4994757;28;20029;-74
2021/07/18 10:42:49;;;;;;;0.00;0.00;;;17.90;99.90;;;;;;5011994;28;20148;-74
2021/07/18 10:45:23;;;;;;;0.00;0.00;;;17.90;99.90;;;;;;4994458;28;20528;-74
2021/07/18 10:48:08;;;;;;;0.10;0.10;;;17.90;99.90;;;;;;5012352;28;20022;-75
2021/07/18 10:50:43;;;;;;;0.00;0.00;;;17.90;99.90;;;;;;4994438;28;20034;-74
2021/07/18 10:53:15;;;;;;;0.52;0.52;;;17.70;99.90;;;;;;5012069;28;20022;-74
2021/07/18 10:55:41;;;;;;;0.08;0.08;;;17.60;99.90;;;;;;5012131;28;20030;-74
2021/07/18 10:58:07;;;;;;;0.10;0.10;;;17.60;99.90;;;;;;5012210;28;20025;-75
2021/07/18 11:00:33;;;;;;;0.00;0.00;;;17.60;99.90;;;;;;5011998;28;20022;-75
2021/07/18 11:03:11;;;;;;;0.20;0.20;;;17.50;99.90;;;;;;4994026;28;20091;-74
2021/07/18 11:05:42;;;;;;;0.00;0.00;;;17.50;99.90;;;;;;5011600;28;20516;-74
2021/07/18 11:08:09;;;;;;;0.00;0.00;;;17.60;99.90;;;;;;4994588;28;20022;-75
2021/07/18 11:10:55;;;;;;;0.00;0.00;;;17.50;99.90;;;;;;5012026;28;20505;-75
2021/07/18 11:13:22;;;;;;;0.00;0.00;;;17.60;99.90;;;;;;4974987;28;20113;-75
2021/07/18 11:15:49;;;;;;;0.00;0.00;;;17.60;99.90;;;;;;5007437;28;20070;-75
2021/07/18 11:18:34;;;;;;;0.00;0.00;;;17.50;99.90;;;;;;4992376;28;20049;-75
2021/07/18 11:21:00;;;;;;;0.45;0.45;;;17.50;99.90;;;;;;4992197;28;20530;-74
2021/07/18 11:23:27;;;;;;;0.00;0.00;;;17.50;99.90;;;;;;4991797;28;20054;-74
2021/07/18 11:26:04;;;;;;;0.00;0.00;;;17.60;99.90;;;;;;4992164;28;20030;-74
2021/07/18 11:28:36;;;;;;;0.00;0.00;;;17.50;99.90;;;;;;5011841;28;20092;-74
2021/07/18 11:31:11;;;;;;;0.45;0.43;;;17.50;99.90;;;;;;4994145;28;20033;-74
2021/07/18 11:33:55;;;;;;;0.00;0.00;;;17.50;99.90;;;;;;4994112;28;20029;-74
2021/07/18 11:36:23;;;;;;;0.00;0.00;;;17.50;99.90;;;;;;4993233;28;20030;-74
2021/07/18 11:38:50;;;;;;;0.00;0.00;;;17.50;99.90;;;;;;5010398;28;20022;-74
2021/07/18 11:41:23;;;;;;;0.00;0.00;;;17.50;99.90;;;;;;4992139;28;20389;-74
2021/07/18 11:43:51;;;;;;;0.00;0.00;;;17.40;99.90;;;;;;4976824;28;20044;-74
2021/07/18 11:46:21;;;;;;;0.25;0.25;;;17.50;99.90;;;;;;5010154;28;20030;-74
2021/07/18 11:48:49;;;;;;;0.00;0.00;;;17.50;99.90;;;;;;5011195;28;20049;-74
2021/07/18 11:51:18;;;;;;;0.00;0.00;;;17.50;99.90;;;;;;5011754;28;20033;-74
2021/07/18 11:53:46;;;;;;;0.00;0.00;;;17.60;99.90;;;;;;4993934;28;20628;-74
2021/07/18 11:56:27;;;;;;;0.00;0.00;;;17.60;99.90;;;;;;5011277;28;20500;-74
2021/07/18 11:58:58;;;;;;;0.00;0.00;;;17.60;99.90;;;;;;5013035;28;20149;-77
2021/07/18 12:01:28;;;;;;;0.00;0.00;;;17.50;99.90;;;;;;5012511;28;20014;-74
2021/07/18 12:03:54;;;;;;;0.00;0.00;;;17.50;99.90;;;;;;4994069;28;20030;-74
2021/07/18 12:06:22;;;;;;;0.00;0.00;;;17.50;99.90;;;;;;5011763;28;20026;-74
2021/07/18 12:08:48;;;;;;;0.00;0.00;;;17.50;99.90;;;;;;5011664;28;20022;-74
2021/07/18 12:11:32;;;;;;;0.00;0.00;;;17.50;99.90;;;;;;4994003;28;20037;-74
2021/07/18 12:13:59;;;;;;;0.00;0.00;;;17.60;99.90;;;;;;4993954;28;20100;-74
2021/07/18 12:18:55;;;;;;;0.10;0.10;;;17.60;99.90;;;;;;5016248;28;20042;-77
2021/07/18 12:21:39;;;;;;;0.17;0.17;;;17.50;99.90;;;;;;5018040;28;20480;-78
2021/07/18 12:24:36;;;;;;;0.00;0.00;;;17.50;99.90;;;;;;5018644;28;20050;-78
2021/07/18 12:27:22;;;;;;;0.00;0.00;;;17.40;99.90;;;;;;4999395;28;20021;-77
2021/07/18 12:29:49;;;;;;;0.00;0.00;;;17.40;99.90;;;;;;4999284;28;20025;-77
2021/07/18 12:32:15;;;;;;;0.05;0.05;;;17.30;99.90;;;;;;5017168;28;20030;-77
2021/07/18 12:34:47;;;;;;;0.00;0.00;;;17.20;99.90;;;;;;4999557;28;20049;-77
2021/07/18 12:37:14;;;;;;;0.00;0.00;;;17.20;99.90;;;;;;5017053;28;20631;-77
2021/07/18 12:39:51;;;;;;;0.00;0.00;;;17.20;99.90;;;;;;5017441;28;20022;-78
2021/07/18 12:42:32;;;;;;;0.00;0.00;;;17.20;99.90;;;;;;4982795;28;20038;-78
2021/07/18 12:45:10;;;;;;;0.00;0.00;;;17.20;99.90;;;;;;5000159;28;20026;-78
2021/07/18 12:47:37;;;;;;;0.65;0.65;;;17.20;99.90;;;;;;5023617;28;20028;-78
2021/07/18 12:50:06;;;;;;;0.03;0.03;;;17.20;99.90;;;;;;5022358;28;20022;-82
2021/07/18 12:52:33;;;;;;;0.10;0.10;;;17.20;99.90;;;;;;5005226;28;20507;-79